createdAt,value
2024-01-31T00:01:53.529Z,79.68
2024-01-31T00:04:22.305Z,79.69
2024-01-31T00:06:52.511Z,79.64
2024-01-31T00:09:20.526Z,79.59
2024-01-31T00:11:48.840Z,79.39
2024-01-31T00:14:19.445Z,79.66
2024-01-31T00:16:49.192Z,79.71
2024-01-31T00:19:17.837Z,79.97
2024-01-31T00:21:49.306Z,79.79
2024-01-31T00:24:21.376Z,80.03
2024-01-31T00:26:51.586Z,80.18
2024-01-31T00:29:20.262Z,80.35
2024-01-31T00:31:51.509Z,80.56
2024-01-31T00:34:20.472Z,80.41
2024-01-31T00:36:49.108Z,80.52
2024-01-31T00:39:17.394Z,80.36
2024-01-31T00:41:47.080Z,80.07
2024-01-31T00:44:15.574Z,79.91
2024-01-31T00:46:46.259Z,80.04
2024-01-31T00:49:18.551Z,79.71
2024-01-31T00:51:48.689Z,79.67
2024-01-31T00:54:19.536Z,79.42
2024-01-31T00:56:48.038Z,79.38
2024-01-31T00:59:16.396Z,79.82
2024-01-31T01:01:45.086Z,80.16
2024-01-31T01:04:17.997Z,79.90
2024-01-31T01:06:46.714Z,80.04
2024-01-31T01:09:16.426Z,80.14
2024-01-31T01:11:47.626Z,80.22
2024-01-31T01:14:20.398Z,80.52
2024-01-31T01:16:48.831Z,80.79
2024-01-31T01:19:21.425Z,80.77
2024-01-31T01:21:50.835Z,80.61
2024-01-31T01:24:20.824Z,80.96
2024-01-31T01:26:49.240Z,80.71
2024-01-31T01:29:17.581Z,80.60
2024-01-31T01:31:46.968Z,80.61
2024-01-31T01:34:16.778Z,80.46
2024-01-31T01:36:46.803Z,80.39
2024-01-31T01:39:15.184Z,80.20
2024-01-31T01:41:44.664Z,80.20
2024-01-31T01:44:17.910Z,80.40
2024-01-31T01:46:47.102Z,80.56
2024-01-31T01:49:17.314Z,80.46
2024-01-31T01:51:47.398Z,80.31
2024-01-31T01:54:16.076Z,80.15
2024-01-31T01:56:48.301Z,80.36
2024-01-31T01:59:16.813Z,80.61
2024-01-31T02:01:47.210Z,80.49
2024-01-31T02:04:16.326Z,80.63
2024-01-31T02:06:45.643Z,80.43
2024-01-31T02:09:15.986Z,80.22
2024-01-31T02:11:44.364Z,80.35
2024-01-31T02:14:12.676Z,80.13
2024-01-31T02:16:43.775Z,79.64
2024-01-31T02:19:12.446Z,79.91
2024-01-31T02:21:44.158Z,79.57
2024-01-31T02:24:14.184Z,79.93
2024-01-31T02:26:43.067Z,79.76
2024-01-31T02:29:13.266Z,79.99
2024-01-31T02:31:44.847Z,79.82
2024-01-31T02:34:13.276Z,79.42
2024-01-31T02:36:42.059Z,79.13
2024-01-31T02:39:10.268Z,78.76
2024-01-31T02:41:40.068Z,78.55
2024-01-31T02:44:08.358Z,78.54
2024-01-31T02:46:39.630Z,78.54
2024-01-31T02:49:09.687Z,78.72
2024-01-31T02:51:38.265Z,78.43
2024-01-31T02:54:09.313Z,78.16
2024-01-31T02:56:39.041Z,78.50
2024-01-31T02:59:08.994Z,78.73
2024-01-31T03:01:38.527Z,78.81
2024-01-31T03:04:08.549Z,78.81
2024-01-31T03:06:36.688Z,79.22
2024-01-31T03:09:05.353Z,78.73
2024-01-31T03:11:33.650Z,78.77
2024-01-31T03:14:03.916Z,78.79
2024-01-31T03:16:41.553Z,78.91
2024-01-31T03:19:10.961Z,78.60
2024-01-31T03:21:39.964Z,78.61
2024-01-31T03:24:08.421Z,78.54
2024-01-31T03:26:39.612Z,78.69
2024-01-31T03:29:09.574Z,78.66
2024-01-31T03:31:41.222Z,78.69
2024-01-31T03:34:09.900Z,78.53
2024-01-31T03:36:38.882Z,78.55
2024-01-31T03:39:09.126Z,78.64
2024-01-31T03:41:37.651Z,78.67
2024-01-31T03:44:07.916Z,78.56
2024-01-31T03:46:36.527Z,78.74
2024-01-31T03:49:09.288Z,79.09
2024-01-31T03:51:40.254Z,79.02
2024-01-31T03:54:08.777Z,79.12
2024-01-31T03:56:39.642Z,79.09
2024-01-31T03:59:10.645Z,78.93
2024-01-31T04:01:39.000Z,78.83
2024-01-31T04:04:08.971Z,78.87
2024-01-31T04:06:37.590Z,78.76
2024-01-31T04:09:07.742Z,78.77
2024-01-31T04:11:38.986Z,78.94
2024-01-31T04:14:07.723Z,78.78
2024-01-31T04:16:36.286Z,78.88
2024-01-31T04:19:04.845Z,79.12
2024-01-31T04:21:37.651Z,79.03
2024-01-31T04:24:06.843Z,79.19
2024-01-31T04:26:35.566Z,79.20
2024-01-31T04:29:03.852Z,79.29
2024-01-31T04:31:32.237Z,79.12
2024-01-31T04:34:01.516Z,79.16
2024-01-31T04:36:29.877Z,79.31
2024-01-31T04:38:59.761Z,79.51
2024-01-31T04:41:29.265Z,79.58
2024-01-31T04:43:57.594Z,79.70
2024-01-31T04:46:25.845Z,79.74
2024-01-31T04:48:54.247Z,79.70
2024-01-31T04:51:22.821Z,79.59
2024-01-31T04:53:54.098Z,79.67
2024-01-31T04:56:23.785Z,79.91
2024-01-31T04:58:52.173Z,79.94
2024-01-31T05:01:20.483Z,79.91
2024-01-31T05:03:49.148Z,79.72
2024-01-31T05:06:17.539Z,79.96
2024-01-31T05:08:46.153Z,80.32
2024-01-31T05:11:15.741Z,80.01
2024-01-31T05:13:47.369Z,80.23
2024-01-31T05:16:16.429Z,80.15
2024-01-31T05:18:44.838Z,79.93
2024-01-31T05:21:14.230Z,80.15
2024-01-31T05:23:43.247Z,80.35
2024-01-31T05:26:12.439Z,80.37
2024-01-31T05:28:44.869Z,80.57
2024-01-31T05:31:17.238Z,80.76
2024-01-31T05:33:45.768Z,80.70
2024-01-31T05:36:15.244Z,80.48
2024-01-31T05:38:43.690Z,80.50
2024-01-31T05:41:13.914Z,80.75
2024-01-31T05:43:42.472Z,80.74
2024-01-31T05:46:12.171Z,80.89
2024-01-31T05:48:42.307Z,80.75
2024-01-31T05:51:10.927Z,80.67
2024-01-31T05:53:40.705Z,80.68
2024-01-31T05:56:09.582Z,80.95
2024-01-31T05:58:37.975Z,81.14
2024-01-31T06:01:07.074Z,81.39
2024-01-31T06:03:35.575Z,80.96
2024-01-31T06:06:06.138Z,81.07
2024-01-31T06:08:35.635Z,81.15
2024-01-31T06:11:09.859Z,81.20
2024-01-31T06:13:38.726Z,81.11
2024-01-31T06:16:11.776Z,81.16
2024-01-31T06:18:40.189Z,81.16
2024-01-31T06:21:10.183Z,81.00
2024-01-31T06:23:43.567Z,80.73
2024-01-31T06:26:13.681Z,80.92
2024-01-31T06:28:47.121Z,81.19
2024-01-31T06:31:26.109Z,81.11
2024-01-31T06:33:54.554Z,81.19
2024-01-31T06:36:24.384Z,81.35
2024-01-31T06:38:53.155Z,81.08
2024-01-31T06:41:22.857Z,81.21
2024-01-31T06:43:52.764Z,81.15
2024-01-31T06:46:21.080Z,81.54
2024-01-31T06:48:52.262Z,81.47
2024-01-31T06:51:22.018Z,81.96
2024-01-31T06:53:52.130Z,82.19
2024-01-31T06:56:20.844Z,82.27
2024-01-31T06:58:50.934Z,82.13
2024-01-31T07:01:19.840Z,82.51
2024-01-31T07:03:48.433Z,82.54
2024-01-31T07:06:17.455Z,82.44
2024-01-31T07:08:45.824Z,82.55
2024-01-31T07:11:18.319Z,82.72
2024-01-31T07:13:46.981Z,82.55
2024-01-31T07:16:18.647Z,82.71
2024-01-31T07:18:48.099Z,82.55
2024-01-31T07:21:27.045Z,82.44
2024-01-31T07:23:55.704Z,82.70
2024-01-31T07:26:27.972Z,82.65
2024-01-31T07:28:56.750Z,82.71
2024-01-31T07:31:25.168Z,82.74
2024-01-31T07:33:53.572Z,82.65
2024-01-31T07:36:21.926Z,82.60
2024-01-31T07:38:50.174Z,82.24
2024-01-31T07:41:18.821Z,82.36
2024-01-31T07:43:49.016Z,82.48
2024-01-31T07:46:17.751Z,82.13
2024-01-31T07:48:49.085Z,82.25
2024-01-31T07:51:18.124Z,82.23
2024-01-31T07:53:46.465Z,82.20
2024-01-31T07:56:14.778Z,82.48
2024-01-31T07:58:44.420Z,82.61
2024-01-31T08:01:16.596Z,82.84
2024-01-31T08:03:45.515Z,82.91
2024-01-31T08:06:13.891Z,82.67
2024-01-31T08:08:46.651Z,82.65
2024-01-31T08:11:15.366Z,82.49
2024-01-31T08:13:44.301Z,82.68
2024-01-31T08:16:16.977Z,82.56
2024-01-31T08:18:46.788Z,82.67
2024-01-31T08:21:15.375Z,82.73
2024-01-31T08:23:44.074Z,82.78
2024-01-31T08:26:20.883Z,83.00
2024-01-31T08:28:56.447Z,82.99
2024-01-31T08:31:32.849Z,83.04
2024-01-31T08:34:01.941Z,82.98
2024-01-31T08:36:30.278Z,83.07
2024-01-31T08:38:59.050Z,83.09
2024-01-31T08:41:28.669Z,83.40
2024-01-31T08:43:58.204Z,83.19
2024-01-31T08:46:29.824Z,83.01
2024-01-31T08:49:02.423Z,83.13
2024-01-31T08:51:32.032Z,82.81
2024-01-31T08:54:00.306Z,82.71
2024-01-31T08:56:29.471Z,82.46
2024-01-31T08:58:57.826Z,82.33
2024-01-31T09:01:29.391Z,82.48
2024-01-31T09:03:59.179Z,82.20
2024-01-31T09:06:31.437Z,82.08
2024-01-31T09:08:59.729Z,82.04
2024-01-31T09:11:27.984Z,81.73
2024-01-31T09:13:56.954Z,82.02
2024-01-31T09:16:25.288Z,81.98
2024-01-31T09:18:54.506Z,82.34
2024-01-31T09:21:25.172Z,82.20
2024-01-31T09:23:55.760Z,82.21
2024-01-31T09:26:24.117Z,82.05
2024-01-31T09:28:52.905Z,81.99
2024-01-31T09:31:25.066Z,82.19
2024-01-31T09:33:55.741Z,82.28
2024-01-31T09:36:24.994Z,82.33
2024-01-31T09:38:57.376Z,82.44
2024-01-31T09:41:27.683Z,82.57
2024-01-31T09:43:57.586Z,82.71
2024-01-31T09:46:28.911Z,82.73
2024-01-31T09:48:57.942Z,82.88
2024-01-31T09:51:30.443Z,83.11
2024-01-31T09:54:02.580Z,83.18
2024-01-31T09:56:34.003Z,83.29
2024-01-31T09:59:06.991Z,83.44
2024-01-31T10:01:36.617Z,83.40
2024-01-31T10:04:10.020Z,83.21
2024-01-31T10:06:38.638Z,83.53
2024-01-31T10:09:09.614Z,83.64
2024-01-31T10:11:39.676Z,83.82
2024-01-31T10:14:09.489Z,83.59
2024-01-31T10:16:38.065Z,83.59
2024-01-31T10:19:07.105Z,83.62
2024-01-31T10:21:35.914Z,83.62
2024-01-31T10:24:08.085Z,83.50
2024-01-31T10:26:38.276Z,83.45
2024-01-31T10:29:09.979Z,83.09
2024-01-31T10:31:42.084Z,83.03
2024-01-31T10:34:13.955Z,83.12
2024-01-31T10:39:35.209Z,82.99
2024-01-31T10:42:04.623Z,82.97
2024-01-31T10:44:36.011Z,82.82
2024-01-31T10:47:04.439Z,82.98
2024-01-31T10:49:34.208Z,83.20
2024-01-31T10:52:06.505Z,83.45
2024-01-31T10:54:44.122Z,83.20
2024-01-31T10:57:13.535Z,83.31
2024-01-31T10:59:45.411Z,82.84
2024-01-31T11:02:19.193Z,83.31
2024-01-31T11:04:47.880Z,83.30
2024-01-31T11:07:21.874Z,83.38
2024-01-31T11:09:52.176Z,83.15
2024-01-31T11:12:23.019Z,83.04
2024-01-31T11:14:54.548Z,82.77
2024-01-31T11:17:24.932Z,82.89
2024-01-31T11:19:57.268Z,82.63
2024-01-31T11:22:26.263Z,82.74
2024-01-31T11:25:00.790Z,82.77
2024-01-31T11:27:29.875Z,82.65
2024-01-31T11:29:58.393Z,82.77
2024-01-31T11:32:28.484Z,82.71
2024-01-31T11:35:02.283Z,82.77
2024-01-31T11:37:31.874Z,82.34
2024-01-31T11:40:03.584Z,82.44
2024-01-31T11:42:32.183Z,82.73
2024-01-31T11:45:01.094Z,82.49
2024-01-31T11:47:31.362Z,82.46
2024-01-31T11:50:03.870Z,82.50
2024-01-31T11:52:33.071Z,82.45
2024-01-31T11:55:03.091Z,82.43
2024-01-31T11:57:32.026Z,82.49
2024-01-31T12:00:01.058Z,82.78
2024-01-31T12:02:30.449Z,82.92
2024-01-31T12:05:07.522Z,83.15
2024-01-31T12:07:38.575Z,83.04
2024-01-31T12:10:11.320Z,82.86
2024-01-31T12:12:43.290Z,82.73
2024-01-31T12:15:14.920Z,82.65
2024-01-31T12:17:47.766Z,82.82
2024-01-31T12:20:20.646Z,82.91
2024-01-31T12:22:48.970Z,82.88
2024-01-31T12:25:19.846Z,83.32
2024-01-31T12:27:48.713Z,83.41
2024-01-31T12:30:17.793Z,83.77
2024-01-31T12:32:47.730Z,83.80
2024-01-31T12:35:16.565Z,84.19
2024-01-31T12:37:45.576Z,84.35
2024-01-31T12:40:14.878Z,84.48
2024-01-31T12:42:47.455Z,84.56
2024-01-31T12:45:16.326Z,84.38
2024-01-31T12:47:46.901Z,84.79
2024-01-31T12:50:17.203Z,84.83
2024-01-31T12:52:46.291Z,85.22
2024-01-31T12:55:15.926Z,85.00
2024-01-31T12:57:45.617Z,85.13
2024-01-31T13:00:16.264Z,84.92
2024-01-31T13:02:47.554Z,85.35
2024-01-31T13:05:16.530Z,85.69
2024-01-31T13:07:45.351Z,85.57
2024-01-31T13:10:14.407Z,86.17
2024-01-31T13:12:45.550Z,86.55
2024-01-31T13:15:15.294Z,86.82
2024-01-31T13:17:44.009Z,87.07
2024-01-31T13:20:13.544Z,87.16
2024-01-31T13:22:43.069Z,87.42
2024-01-31T13:25:11.417Z,87.82
2024-01-31T13:27:41.676Z,87.94
2024-01-31T13:30:13.571Z,88.37
2024-01-31T13:32:42.522Z,88.67
2024-01-31T13:35:11.332Z,88.64
2024-01-31T13:37:45.170Z,88.73
2024-01-31T13:40:14.273Z,88.65
2024-01-31T13:42:43.837Z,88.76
2024-01-31T13:45:17.206Z,88.65
2024-01-31T13:47:47.011Z,88.53
2024-01-31T13:50:15.915Z,88.10
2024-01-31T13:52:44.609Z,87.60
2024-01-31T13:55:13.182Z,87.55
2024-01-31T13:57:42.520Z,88.09
2024-01-31T14:00:12.918Z,88.85
2024-01-31T14:02:44.195Z,89.50
2024-01-31T14:05:15.325Z,90.49
2024-01-31T14:07:46.679Z,91.16
2024-01-31T14:10:16.990Z,92.08
2024-01-31T14:12:49.858Z,92.51
2024-01-31T14:15:21.827Z,92.69
2024-01-31T14:17:53.934Z,93.19
2024-01-31T14:20:24.248Z,93.29
2024-01-31T14:23:04.670Z,93.58
2024-01-31T14:25:47.715Z,94.25
2024-01-31T14:28:16.176Z,94.57
2024-01-31T14:30:44.749Z,95.73
2024-01-31T14:33:14.889Z,96.49
2024-01-31T14:35:43.931Z,97.75
2024-01-31T14:38:12.273Z,98.21
2024-01-31T14:40:41.707Z,98.86
2024-01-31T14:43:10.372Z,99.38
2024-01-31T14:45:40.695Z,100.00
2024-01-31T14:48:09.730Z,100.00
2024-01-31T14:50:39.797Z,100.00
2024-01-31T14:53:08.219Z,100.00
2024-01-31T14:55:39.193Z,100.00
2024-01-31T14:58:07.987Z,100.00
2024-01-31T15:00:36.384Z,100.00
2024-01-31T15:03:04.733Z,100.00
2024-01-31T15:05:34.025Z,100.00
2024-01-31T15:08:04.564Z,100.00
2024-01-31T15:10:37.507Z,100.00
2024-01-31T15:13:13.362Z,100.00
2024-01-31T15:15:42.124Z,100.00
2024-01-31T15:18:10.590Z,100.00
2024-01-31T15:20:39.512Z,100.00
2024-01-31T15:23:09.330Z,100.00
2024-01-31T15:25:39.626Z,100.00
2024-01-31T15:28:08.038Z,100.00
2024-01-31T15:30:37.042Z,100.00
2024-01-31T15:33:12.442Z,100.00
2024-01-31T15:35:41.234Z,100.00
2024-01-31T15:38:13.491Z,100.00
2024-01-31T15:40:42.814Z,100.00
2024-01-31T15:43:11.066Z,100.00
2024-01-31T15:45:39.345Z,100.00
2024-01-31T15:48:08.302Z,100.00
2024-01-31T15:50:36.812Z,100.00
2024-01-31T15:53:05.637Z,100.00
2024-01-31T15:55:35.633Z,100.00
2024-01-31T15:58:10.048Z,100.00
2024-01-31T16:00:38.757Z,100.00
2024-01-31T16:03:09.053Z,100.00
2024-01-31T16:05:37.613Z,100.00
2024-01-31T16:08:20.531Z,100.00
2024-01-31T16:10:57.087Z,100.00
2024-01-31T16:13:27.482Z,100.00
2024-01-31T16:16:08.607Z,100.00
2024-01-31T16:18:42.324Z,100.00
2024-01-31T16:21:13.453Z,100.00
2024-01-31T16:23:47.649Z,100.00
2024-01-31T16:26:26.027Z,100.00
2024-01-31T16:28:57.274Z,100.00
2024-01-31T16:31:27.602Z,100.00
2024-01-31T16:34:06.172Z,100.00
2024-01-31T16:36:35.704Z,100.00
2024-01-31T16:39:12.330Z,100.00
2024-01-31T16:42:09.927Z,100.00
2024-01-31T16:44:44.695Z,100.00
2024-01-31T16:47:15.612Z,100.00
2024-01-31T16:49:43.203Z,100.00
2024-01-31T16:52:11.705Z,100.00
2024-01-31T16:54:40.629Z,100.00
2024-01-31T16:57:10.624Z,100.00
2024-01-31T16:59:39.073Z,100.00
2024-01-31T17:02:10.550Z,100.00
2024-01-31T17:04:38.824Z,100.00
2024-01-31T17:07:09.349Z,100.00
2024-01-31T17:09:38.888Z,100.00
2024-01-31T17:12:08.790Z,100.00
2024-01-31T17:14:43.924Z,100.00
2024-01-31T17:17:15.969Z,100.00
2024-01-31T17:19:44.533Z,100.00
2024-01-31T17:22:14.039Z,100.00
2024-01-31T17:24:42.868Z,100.00
2024-01-31T17:27:12.450Z,100.00
2024-01-31T17:29:42.276Z,100.00
2024-01-31T17:32:10.948Z,100.00
2024-01-31T17:34:39.706Z,100.00
2024-01-31T17:37:08.074Z,100.00
2024-01-31T17:39:36.401Z,100.00
2024-01-31T17:42:05.925Z,100.00
2024-01-31T17:44:35.689Z,100.00
2024-01-31T17:47:06.424Z,100.00
2024-01-31T17:49:35.283Z,100.00
2024-01-31T17:52:04.312Z,100.00
2024-01-31T17:54:32.888Z,100.00
2024-01-31T17:57:01.544Z,100.00
2024-01-31T17:59:33.108Z,100.00
2024-01-31T18:02:03.988Z,100.00
2024-01-31T18:04:37.221Z,100.00
2024-01-31T18:07:08.110Z,100.00
2024-01-31T18:09:36.837Z,100.00
2024-01-31T18:12:18.513Z,100.00
2024-01-31T18:14:53.510Z,100.00
2024-01-31T18:17:22.415Z,100.00
2024-01-31T18:19:58.759Z,100.00
2024-01-31T18:22:28.032Z,100.00
2024-01-31T18:25:00.610Z,100.00
2024-01-31T18:27:29.269Z,100.00
2024-01-31T18:29:57.719Z,100.00
2024-01-31T18:32:26.872Z,100.00
2024-01-31T18:34:56.740Z,100.00
2024-01-31T18:37:25.179Z,100.00
2024-01-31T18:39:53.998Z,100.00
2024-01-31T18:42:22.547Z,100.00
2024-01-31T18:44:51.667Z,100.00
2024-01-31T18:47:24.125Z,100.00
2024-01-31T18:49:52.637Z,100.00
2024-01-31T18:52:28.202Z,100.00
2024-01-31T18:54:57.583Z,100.00
2024-01-31T18:57:26.142Z,100.00
2024-01-31T18:59:54.652Z,100.00
2024-01-31T19:02:24.211Z,100.00
2024-01-31T19:05:00.193Z,100.00
2024-01-31T19:07:35.515Z,100.00
2024-01-31T19:10:06.244Z,100.00
2024-01-31T19:12:34.665Z,100.00
2024-01-31T19:15:04.999Z,100.00
2024-01-31T19:17:39.483Z,100.00
2024-01-31T19:20:14.634Z,100.00
2024-01-31T19:22:48.810Z,100.00
2024-01-31T19:25:17.310Z,100.00
2024-01-31T19:27:47.446Z,100.00
2024-01-31T19:30:17.110Z,100.00
2024-01-31T19:32:45.789Z,100.00
2024-01-31T19:35:14.403Z,100.00
2024-01-31T19:37:43.113Z,100.00
2024-01-31T19:40:13.611Z,100.00
2024-01-31T19:42:42.006Z,100.00
2024-01-31T19:45:12.439Z,100.00
2024-01-31T19:47:40.973Z,100.00
2024-01-31T19:50:09.847Z,100.00
2024-01-31T19:52:41.992Z,100.00
2024-01-31T19:55:11.991Z,100.00
2024-01-31T19:57:42.113Z,100.00
2024-01-31T20:00:11.867Z,100.00
2024-01-31T20:02:43.259Z,100.00
2024-01-31T20:05:14.453Z,100.00
2024-01-31T20:07:42.959Z,100.00
2024-01-31T20:10:12.567Z,100.00
2024-01-31T20:12:42.723Z,100.00
2024-01-31T20:15:17.362Z,100.00
2024-01-31T20:17:47.276Z,100.00
2024-01-31T20:20:18.167Z,100.00
2024-01-31T20:22:49.882Z,100.00
2024-01-31T20:25:19.704Z,100.00
2024-01-31T20:27:53.150Z,100.00
2024-01-31T20:30:22.578Z,100.00
2024-01-31T20:32:52.429Z,100.00
2024-01-31T20:35:20.988Z,100.00
2024-01-31T20:37:49.578Z,100.00
2024-01-31T20:40:20.394Z,100.00
2024-01-31T20:42:50.203Z,100.00
2024-01-31T20:45:18.923Z,100.00
2024-01-31T20:47:47.526Z,100.00
2024-01-31T20:50:17.530Z,100.00
2024-01-31T20:52:47.315Z,100.00
2024-01-31T20:55:15.945Z,100.00
2024-01-31T20:57:44.380Z,100.00
2024-01-31T21:00:15.970Z,100.00
2024-01-31T21:02:45.168Z,100.00
2024-01-31T21:05:14.147Z,100.00
2024-01-31T21:07:42.911Z,100.00
2024-01-31T21:10:15.671Z,100.00
2024-01-31T21:12:48.462Z,100.00
2024-01-31T21:15:20.943Z,100.00
2024-01-31T21:17:49.511Z,100.00
2024-01-31T21:20:18.440Z,100.00
2024-01-31T21:22:49.203Z,100.00
2024-01-31T21:25:17.767Z,100.00
2024-01-31T21:27:46.473Z,100.00
2024-01-31T21:30:18.298Z,100.00
2024-01-31T21:32:54.294Z,100.00
2024-01-31T21:35:23.032Z,100.00
2024-01-31T21:37:53.040Z,100.00
2024-01-31T21:40:21.038Z,100.00
2024-01-31T21:42:55.871Z,100.00
2024-01-31T21:45:24.633Z,100.00
2024-01-31T21:47:54.831Z,100.00
2024-01-31T21:50:23.211Z,100.00
2024-01-31T21:52:54.642Z,100.00
2024-01-31T21:55:23.322Z,100.00
2024-01-31T21:57:51.972Z,100.00
2024-01-31T22:00:22.103Z,100.00
2024-01-31T22:02:53.263Z,100.00
2024-01-31T22:05:24.237Z,100.00
2024-01-31T22:07:53.528Z,100.00
2024-01-31T22:10:21.839Z,100.00
2024-01-31T22:12:54.061Z,100.00
2024-01-31T22:15:26.990Z,100.00
2024-01-31T22:18:09.799Z,100.00
2024-01-31T22:20:39.933Z,100.00
2024-01-31T22:23:08.434Z,100.00
2024-01-31T22:25:38.311Z,100.00
2024-01-31T22:28:10.249Z,100.00
2024-01-31T22:30:38.714Z,100.00
2024-01-31T22:33:11.158Z,100.00
2024-01-31T22:35:42.590Z,100.00
2024-01-31T22:38:11.151Z,100.00
2024-01-31T22:40:40.863Z,100.00
2024-01-31T22:43:12.013Z,100.00
2024-01-31T22:45:43.402Z,100.00
2024-01-31T22:48:15.503Z,100.00
2024-01-31T22:50:47.177Z,100.00
2024-01-31T22:53:15.675Z,100.00
2024-01-31T22:55:49.648Z,100.00
2024-01-31T22:58:20.566Z,100.00
2024-01-31T23:00:53.934Z,100.00
2024-01-31T23:03:26.946Z,100.00
2024-01-31T23:05:57.434Z,100.00
2024-01-31T23:08:28.169Z,100.00
2024-01-31T23:10:56.771Z,100.00
2024-01-31T23:13:30.324Z,100.00
2024-01-31T23:16:05.064Z,100.00
2024-01-31T23:18:38.507Z,100.00
2024-01-31T23:21:15.708Z,100.00
2024-01-31T23:23:44.988Z,100.00
2024-01-31T23:26:25.621Z,100.00
2024-01-31T23:28:54.329Z,100.00
2024-01-31T23:31:24.030Z,100.00
2024-01-31T23:33:52.930Z,100.00
2024-01-31T23:36:27.327Z,100.00
2024-01-31T23:38:55.861Z,100.00
2024-01-31T23:41:25.341Z,100.00
2024-01-31T23:43:53.956Z,100.00
2024-01-31T23:46:42.611Z,100.00
2024-01-31T23:49:14.174Z,100.00
2024-01-31T23:51:44.796Z,100.00
2024-01-31T23:54:13.845Z,100.00
2024-01-31T23:56:45.259Z,100.00
2024-01-31T23:59:16.363Z,100.00
